Time;durP1;ratioP1;P1;durP2;ratioP2;P2;SDS_P1;SDS_P2;PMS_P1;PMS_P2;Temp;Humidity;BMP_temperature;BMP_pressure;BME280_temperature;BME280_humidity;BME280_pressure;Samples;Min_cycle;Max_cycle;Signal;HPM_P1;HPM_P2
2024/01/10 00:02:05;;;;;;;22.57;14.37;;;;;;;;;;5093545;28;20175;-61
2024/01/10 00:04:31;;;;;;;21.83;14.10;;;;;;;;;;5093559;28;20172;-61
2024/01/10 00:06:57;;;;;;;23.57;15.37;;;;;;;;;;5093648;28;20178;-60
2024/01/10 00:09:23;;;;;;;24.43;15.47;;;;;;;;;;5093564;28;20184;-61
2024/01/10 00:11:49;;;;;;;23.90;14.63;;;;;;;;;;5093808;28;20334;-61
2024/01/10 00:14:16;;;;;;;24.03;14.40;;;;;;;;;;5093106;28;20215;-60
2024/01/10 00:16:42;;;;;;;23.80;14.40;;;;;;;;;;5090558;28;20175;-61
2024/01/10 00:19:08;;;;;;;24.27;14.03;;;;;;;;;;5090232;28;20171;-61
2024/01/10 00:21:36;;;;;;;22.10;15.23;;;;;;;;;;5090347;28;20176;-60
2024/01/10 00:24:01;;;;;;;24.97;14.97;;;;;;;;;;5092917;28;20182;-61
2024/01/10 00:26:27;;;;;;;24.17;15.07;;;;;;;;;;5092908;28;20457;-61
2024/01/10 00:28:53;;;;;;;22.80;14.67;;;;;;;;;;5095047;28;20172;-60
2024/01/10 00:31:19;;;;;;;19.97;13.97;;;;;;;;;;5093031;28;20176;-61
2024/01/10 00:33:45;;;;;;;25.47;15.10;;;;;;;;;;5091731;28;20203;-61
2024/01/10 00:36:11;;;;;;;27.03;16.13;;;;;;;;;;5090724;28;20288;-59
2024/01/10 00:38:37;;;;;;;17.67;12.40;;;;;;;;;;5089696;28;20203;-61
2024/01/10 00:41:03;;;;;;;25.43;15.57;;;;;;;;;;5091556;28;20587;-62
2024/01/10 00:43:29;;;;;;;24.17;14.70;;;;;;;;;;5090995;28;20433;-61
2024/01/10 00:45:55;;;;;;;24.37;15.33;;;;;;;;;;5091921;28;20164;-61
2024/01/10 00:48:21;;;;;;;27.87;14.83;;;;;;;;;;5092397;28;20485;-61
2024/01/10 00:50:47;;;;;;;27.67;15.53;;;;;;;;;;5092833;28;20434;-61
2024/01/10 00:53:13;;;;;;;21.93;13.60;;;;;;;;;;5093970;28;20234;-61
2024/01/10 00:55:39;;;;;;;26.00;15.00;;;;;;;;;;5094031;28;20242;-61
2024/01/10 00:58:05;;;;;;;21.53;13.80;;;;;;;;;;5094395;28;20226;-61
2024/01/10 01:00:32;;;;;;;22.03;14.53;;;;;;;;;;5094637;28;20164;-61
2024/01/10 01:02:58;;;;;;;22.37;14.87;;;;;;;;;;5094979;28;20554;-60
2024/01/10 01:05:24;;;;;;;24.40;14.03;;;;;;;;;;5092804;28;20172;-59
2024/01/10 01:07:50;;;;;;;22.47;13.77;;;;;;;;;;5093449;28;20183;-60
2024/01/10 01:10:15;;;;;;;28.30;15.97;;;;;;;;;;5093917;28;20210;-60
2024/01/10 01:12:41;;;;;;;23.47;14.07;;;;;;;;;;5092934;28;20224;-60
2024/01/10 01:15:07;;;;;;;27.37;15.20;;;;;;;;;;5096027;28;20172;-60
2024/01/10 01:17:34;;;;;;;22.93;15.33;;;;;;;;;;5097990;28;20194;-60
2024/01/10 01:20:00;;;;;;;23.37;14.57;;;;;;;;;;5097398;28;20229;-60
2024/01/10 01:22:26;;;;;;;22.53;15.20;;;;;;;;;;5097338;28;20183;-60
2024/01/10 01:24:52;;;;;;;24.30;14.23;;;;;;;;;;5097488;28;20168;-61
2024/01/10 01:27:18;;;;;;;21.17;14.03;;;;;;;;;;5097203;28;20180;-61
2024/01/10 01:29:44;;;;;;;23.37;12.90;;;;;;;;;;5097574;28;20218;-60
2024/01/10 01:32:10;;;;;;;20.30;13.00;;;;;;;;;;5096798;28;20180;-60
2024/01/10 01:34:36;;;;;;;25.83;13.20;;;;;;;;;;5095976;28;20221;-61
2024/01/10 01:37:02;;;;;;;20.97;11.87;;;;;;;;;;5097061;28;20649;-60
2024/01/10 01:39:28;;;;;;;22.33;12.13;;;;;;;;;;5096729;28;20172;-62
2024/01/10 01:41:54;;;;;;;19.67;10.97;;;;;;;;;;5097436;28;20168;-61
2024/01/10 01:44:20;;;;;;;20.00;11.43;;;;;;;;;;5097285;28;20184;-60
2024/01/10 01:46:47;;;;;;;16.20;10.40;;;;;;;;;;5097229;28;20168;-61
2024/01/10 01:49:13;;;;;;;20.10;10.40;;;;;;;;;;5097938;28;20249;-60
2024/01/10 01:51:39;;;;;;;21.57;11.67;;;;;;;;;;5096169;28;20180;-61
2024/01/10 01:54:08;;;;;;;20.17;10.43;;;;;;;;;;5096883;28;20748;-61
2024/01/10 01:56:34;;;;;;;18.97;11.83;;;;;;;;;;5096313;28;20168;-58
2024/01/10 01:59:00;;;;;;;17.13;10.37;;;;;;;;;;5097115;28;20194;-60
2024/01/10 02:01:26;;;;;;;17.67;10.60;;;;;;;;;;5096154;28;20172;-61
2024/01/10 02:03:52;;;;;;;25.57;12.07;;;;;;;;;;5097226;28;20182;-59
2024/01/10 02:06:18;;;;;;;19.87;10.37;;;;;;;;;;5096331;28;20176;-59
2024/01/10 02:08:44;;;;;;;19.60;10.53;;;;;;;;;;5096036;28;20167;-61
2024/01/10 02:11:10;;;;;;;22.20;12.53;;;;;;;;;;5095938;28;20246;-61
2024/01/10 02:13:36;;;;;;;19.03;11.10;;;;;;;;;;5096768;28;20208;-61
2024/01/10 02:16:03;;;;;;;19.17;10.87;;;;;;;;;;5096653;28;20172;-60
2024/01/10 02:18:29;;;;;;;19.97;11.00;;;;;;;;;;5097198;28;20221;-60
2024/01/10 02:20:55;;;;;;;19.33;10.97;;;;;;;;;;5096253;28;20263;-60
2024/01/10 02:23:21;;;;;;;21.00;11.73;;;;;;;;;;5095922;28;20283;-60
2024/01/10 02:25:47;;;;;;;21.07;10.97;;;;;;;;;;5097795;28;20213;-61
2024/01/10 02:28:13;;;;;;;17.70;10.77;;;;;;;;;;5096407;28;20187;-60
2024/01/10 02:30:39;;;;;;;16.77;9.47;;;;;;;;;;5096254;28;20175;-59
2024/01/10 02:33:05;;;;;;;17.73;10.13;;;;;;;;;;5096360;28;20210;-60
2024/01/10 02:35:32;;;;;;;21.20;8.90;;;;;;;;;;5096162;28;20175;-60
2024/01/10 02:37:58;;;;;;;15.00;9.43;;;;;;;;;;5096269;28;20168;-59
2024/01/10 02:40:24;;;;;;;13.37;8.87;;;;;;;;;;5096536;28;20687;-61
2024/01/10 02:42:51;;;;;;;17.07;9.87;;;;;;;;;;5096496;28;20175;-60
2024/01/10 02:45:17;;;;;;;16.87;9.80;;;;;;;;;;5096085;28;20164;-61
2024/01/10 02:47:43;;;;;;;12.70;8.13;;;;;;;;;;5096664;28;20164;-62
2024/01/10 02:50:09;;;;;;;13.97;8.43;;;;;;;;;;5095802;28;20441;-60
2024/01/10 02:52:35;;;;;;;13.50;8.33;;;;;;;;;;5096622;28;20176;-61
2024/01/10 02:55:01;;;;;;;13.57;8.50;;;;;;;;;;5095144;28;20203;-61
2024/01/10 02:57:27;;;;;;;14.30;8.83;;;;;;;;;;5095312;28;20172;-58
2024/01/10 02:59:53;;;;;;;14.33;8.77;;;;;;;;;;5095556;28;20214;-61
2024/01/10 03:02:19;;;;;;;13.23;8.37;;;;;;;;;;5094145;28;20179;-61
2024/01/10 03:04:45;;;;;;;13.77;8.73;;;;;;;;;;5095212;28;20381;-60
2024/01/10 03:07:11;;;;;;;13.90;9.43;;;;;;;;;;5094865;28;20280;-61
2024/01/10 03:09:37;;;;;;;17.47;8.97;;;;;;;;;;5093725;28;20179;-59
2024/01/10 03:12:03;;;;;;;13.83;8.60;;;;;;;;;;5093896;28;20236;-61
2024/01/10 03:14:28;;;;;;;14.80;8.93;;;;;;;;;;5093729;28;20617;-60
2024/01/10 03:16:59;;;;;;;12.47;8.47;;;;;;;;;;5078272;28;20209;-60
2024/01/10 03:19:25;;;;;;;16.63;10.43;;;;;;;;;;5094735;28;20238;-60
2024/01/10 03:21:51;;;;;;;14.80;9.00;;;;;;;;;;5093729;28;20647;-60
2024/01/10 03:24:17;;;;;;;15.93;9.33;;;;;;;;;;5092552;28;20249;-60
2024/01/10 03:26:43;;;;;;;15.07;9.30;;;;;;;;;;5093074;28;20244;-61
2024/01/10 03:29:09;;;;;;;16.60;9.83;;;;;;;;;;5093263;28;20184;-60
2024/01/10 03:31:35;;;;;;;15.70;8.80;;;;;;;;;;5093731;28;20294;-60
2024/01/10 03:34:01;;;;;;;15.10;9.17;;;;;;;;;;5093960;28;20253;-60
2024/01/10 03:36:27;;;;;;;16.23;9.07;;;;;;;;;;5095318;28;20168;-58
2024/01/10 03:38:53;;;;;;;14.00;9.07;;;;;;;;;;5094674;28;20271;-60
2024/01/10 03:41:20;;;;;;;16.27;9.47;;;;;;;;;;5094671;28;20278;-60
2024/01/10 03:43:46;;;;;;;19.20;10.00;;;;;;;;;;5094829;28;20172;-59
2024/01/10 03:46:13;;;;;;;16.03;10.33;;;;;;;;;;5093819;28;20618;-60
2024/01/10 03:48:47;;;;;;;15.70;9.63;;;;;;;;;;5093701;28;20211;-59
2024/01/10 03:51:13;;;;;;;19.37;9.80;;;;;;;;;;5093868;28;20167;-59
2024/01/10 03:53:39;;;;;;;15.10;9.13;;;;;;;;;;5094651;28;20211;-59
2024/01/10 03:56:05;;;;;;;15.97;9.57;;;;;;;;;;5093263;28;20179;-60
2024/01/10 03:58:31;;;;;;;16.70;9.67;;;;;;;;;;5096393;28;20710;-60
2024/01/10 04:00:57;;;;;;;20.50;10.30;;;;;;;;;;5097603;28;20207;-61
2024/01/10 04:03:23;;;;;;;19.53;9.93;;;;;;;;;;5097444;28;20182;-61
2024/01/10 04:05:49;;;;;;;17.30;10.17;;;;;;;;;;5097093;28;20172;-60
2024/01/10 04:08:15;;;;;;;20.33;10.97;;;;;;;;;;5096830;28;20554;-60
2024/01/10 04:10:42;;;;;;;22.47;11.17;;;;;;;;;;5097001;28;20516;-60
2024/01/10 04:13:08;;;;;;;18.23;10.00;;;;;;;;;;5096882;28;20200;-60
2024/01/10 04:15:34;;;;;;;18.33;10.47;;;;;;;;;;5098737;28;20157;-60
2024/01/10 04:18:00;;;;;;;19.87;10.63;;;;;;;;;;5097900;28;20164;-60
2024/01/10 04:20:26;;;;;;;17.97;10.70;;;;;;;;;;5098004;28;20164;-61
2024/01/10 04:22:53;;;;;;;18.87;11.33;;;;;;;;;;5097357;28;20263;-59
2024/01/10 04:25:19;;;;;;;21.87;11.77;;;;;;;;;;5098667;28;20164;-60
2024/01/10 04:27:45;;;;;;;20.60;10.80;;;;;;;;;;5098159;28;20548;-60
2024/01/10 04:30:11;;;;;;;21.10;12.23;;;;;;;;;;5099135;28;20212;-60
2024/01/10 04:32:37;;;;;;;20.00;11.30;;;;;;;;;;5096881;28;20203;-60
2024/01/10 04:35:03;;;;;;;19.83;11.23;;;;;;;;;;5097130;28;20687;-60
2024/01/10 04:37:29;;;;;;;21.43;12.10;;;;;;;;;;5098036;28;20213;-60
2024/01/10 04:39:55;;;;;;;18.23;10.60;;;;;;;;;;5098488;28;20171;-60
2024/01/10 04:42:21;;;;;;;17.00;10.40;;;;;;;;;;5097798;28;20167;-61
2024/01/10 04:44:47;;;;;;;17.67;11.00;;;;;;;;;;5097092;28;20226;-61
2024/01/10 04:47:13;;;;;;;19.07;10.47;;;;;;;;;;5097358;28;20274;-59
2024/01/10 04:49:39;;;;;;;17.13;10.67;;;;;;;;;;5098457;28;20255;-60
2024/01/10 04:52:05;;;;;;;20.53;11.67;;;;;;;;;;5097308;28;20175;-59
2024/01/10 04:54:47;;;;;;;17.83;10.33;;;;;;;;;;5099300;28;20210;-60
2024/01/10 04:57:13;;;;;;;22.60;11.93;;;;;;;;;;5097058;28;20274;-61
2024/01/10 04:59:39;;;;;;;17.27;10.20;;;;;;;;;;5095486;28;20183;-60
2024/01/10 05:02:05;;;;;;;19.57;10.10;;;;;;;;;;5096074;28;20172;-60
2024/01/10 05:04:31;;;;;;;14.37;9.73;;;;;;;;;;5094548;28;20287;-61
2024/01/10 05:06:57;;;;;;;15.97;10.10;;;;;;;;;;5096962;28;20690;-61
2024/01/10 05:09:23;;;;;;;18.50;9.43;;;;;;;;;;5095131;28;20186;-61
2024/01/10 05:11:51;;;;;;;15.33;8.27;;;;;;;;;;5096974;28;20228;-61
2024/01/10 05:14:19;;;;;;;13.40;7.93;;;;;;;;;;5096983;28;20299;-60
2024/01/10 05:16:47;;;;;;;16.27;8.40;;;;;;;;;;5096134;28;20257;-60
2024/01/10 05:19:13;;;;;;;14.07;8.30;;;;;;;;;;5096266;28;20240;-61
2024/01/10 05:21:39;;;;;;;11.13;6.97;;;;;;;;;;5095465;28;20251;-61
2024/01/10 05:24:05;;;;;;;8.90;6.90;;;;;;;;;;5096019;28;20180;-60
2024/01/10 05:26:32;;;;;;;11.27;6.50;;;;;;;;;;5095767;28;20233;-58
2024/01/10 05:28:58;;;;;;;10.27;6.50;;;;;;;;;;5096443;28;20321;-60
2024/01/10 05:31:24;;;;;;;11.17;6.63;;;;;;;;;;5095812;28;20172;-60
2024/01/10 05:33:50;;;;;;;12.17;6.90;;;;;;;;;;5096471;28;20206;-60
2024/01/10 05:36:15;;;;;;;12.97;6.97;;;;;;;;;;5095625;28;20172;-61
2024/01/10 05:38:41;;;;;;;12.03;7.80;;;;;;;;;;5095079;28;20268;-62
2024/01/10 05:41:07;;;;;;;13.67;7.17;;;;;;;;;;5095132;28;20168;-60
2024/01/10 05:43:33;;;;;;;10.67;6.73;;;;;;;;;;5095380;28;20481;-59
2024/01/10 05:46:00;;;;;;;9.33;6.03;;;;;;;;;;5094647;28;20230;-59
2024/01/10 05:48:26;;;;;;;11.10;7.00;;;;;;;;;;5094415;28;20176;-60
2024/01/10 05:50:52;;;;;;;10.03;6.47;;;;;;;;;;5094194;28;20225;-61
2024/01/10 05:53:18;;;;;;;9.50;5.57;;;;;;;;;;5094433;28;20268;-59
2024/01/10 05:55:44;;;;;;;9.93;6.27;;;;;;;;;;5095043;28;20508;-60
2024/01/10 05:58:10;;;;;;;6.47;5.00;;;;;;;;;;5096416;28;20262;-61
2024/01/10 06:00:36;;;;;;;10.87;6.23;;;;;;;;;;5095706;28;20176;-61
2024/01/10 06:03:02;;;;;;;7.10;4.97;;;;;;;;;;5094409;28;20590;-60
2024/01/10 06:05:28;;;;;;;10.67;5.67;;;;;;;;;;5094155;28;20171;-60
2024/01/10 06:07:54;;;;;;;8.67;5.30;;;;;;;;;;5093146;28;20192;-59
2024/01/10 06:10:20;;;;;;;8.20;5.10;;;;;;;;;;5091620;28;20260;-58
2024/01/10 06:12:52;;;;;;;7.33;4.93;;;;;;;;;;5086270;28;20467;-60
2024/01/10 06:15:18;;;;;;;9.60;5.30;;;;;;;;;;5088896;28;20230;-60
2024/01/10 06:17:44;;;;;;;9.80;5.53;;;;;;;;;;5093143;28;20195;-59
2024/01/10 06:20:10;;;;;;;7.67;4.50;;;;;;;;;;5093651;28;20199;-60
2024/01/10 06:22:36;;;;;;;5.43;4.00;;;;;;;;;;5093505;28;20697;-58
2024/01/10 06:25:02;;;;;;;6.83;5.20;;;;;;;;;;5093372;28;20172;-60
2024/01/10 06:27:28;;;;;;;6.10;4.57;;;;;;;;;;5093744;28;20279;-60
2024/01/10 06:29:54;;;;;;;6.97;4.70;;;;;;;;;;5092530;28;20233;-61
2024/01/10 06:32:20;;;;;;;8.17;5.23;;;;;;;;;;5093027;28;20179;-59
2024/01/10 06:34:47;;;;;;;9.90;4.73;;;;;;;;;;5091849;28;20725;-59
2024/01/10 06:37:13;;;;;;;7.40;5.40;;;;;;;;;;5091836;28;20164;-60
2024/01/10 06:39:39;;;;;;;6.80;4.53;;;;;;;;;;5092527;28;20361;-61
2024/01/10 06:42:06;;;;;;;7.80;5.83;;;;;;;;;;5093236;28;20267;-58
2024/01/10 06:44:32;;;;;;;8.20;5.47;;;;;;;;;;5093367;28;20168;-58
2024/01/10 06:46:58;;;;;;;8.03;5.93;;;;;;;;;;5092531;28;20179;-60
2024/01/10 06:49:24;;;;;;;8.40;5.77;;;;;;;;;;5091942;28;20617;-60
2024/01/10 06:51:50;;;;;;;7.37;4.90;;;;;;;;;;5092898;28;20596;-59
2024/01/10 06:54:18;;;;;;;9.00;5.47;;;;;;;;;;5092064;28;20725;-61
2024/01/10 06:56:44;;;;;;;8.17;5.50;;;;;;;;;;5089953;28;20164;-61
2024/01/10 06:59:10;;;;;;;8.40;5.40;;;;;;;;;;5089758;28;20172;-60
2024/01/10 07:01:36;;;;;;;8.20;5.27;;;;;;;;;;5088957;28;20220;-60
2024/01/10 07:04:02;;;;;;;9.13;5.77;;;;;;;;;;5088355;28;20236;-60
2024/01/10 07:06:28;;;;;;;9.20;5.47;;;;;;;;;;5086631;28;20621;-60
2024/01/10 07:08:53;;;;;;;8.40;5.40;;;;;;;;;;5086163;28;20175;-60
2024/01/10 07:11:20;;;;;;;10.73;5.97;;;;;;;;;;5088813;28;20796;-60
2024/01/10 07:13:45;;;;;;;5.70;4.63;;;;;;;;;;5088652;28;20314;-60
2024/01/10 07:16:14;;;;;;;10.27;6.27;;;;;;;;;;5089804;28;20274;-60
2024/01/10 07:18:40;;;;;;;9.77;6.77;;;;;;;;;;5089893;28;20743;-59
2024/01/10 07:21:06;;;;;;;10.20;6.77;;;;;;;;;;5090541;28;20198;-61
2024/01/10 07:23:33;;;;;;;9.10;6.20;;;;;;;;;;5088139;28;20171;-60
2024/01/10 07:26:00;;;;;;;9.87;6.27;;;;;;;;;;5086687;28;20182;-60
2024/01/10 07:28:25;;;;;;;9.47;7.00;;;;;;;;;;5087807;28;20187;-61
2024/01/10 07:30:51;;;;;;;8.37;5.70;;;;;;;;;;5084063;28;20179;-60
2024/01/10 07:33:18;;;;;;;12.30;6.07;;;;;;;;;;5079894;28;20546;-60
2024/01/10 07:35:43;;;;;;;9.80;6.27;;;;;;;;;;5082669;28;20167;-60
2024/01/10 07:38:09;;;;;;;9.90;5.80;;;;;;;;;;5081123;28;20395;-60
2024/01/10 07:40:36;;;;;;;10.33;6.07;;;;;;;;;;5081834;28;20394;-59
2024/01/10 07:43:02;;;;;;;9.13;5.70;;;;;;;;;;5084600;28;20167;-60
2024/01/10 07:45:28;;;;;;;10.60;6.17;;;;;;;;;;5084902;28;20267;-60
2024/01/10 07:47:54;;;;;;;9.97;5.73;;;;;;;;;;5082962;28;20171;-58
2024/01/10 07:50:20;;;;;;;7.53;5.10;;;;;;;;;;5083975;28;20172;-59
2024/01/10 07:52:46;;;;;;;9.50;6.27;;;;;;;;;;5085408;28;20561;-60
2024/01/10 07:55:13;;;;;;;8.80;5.90;;;;;;;;;;5084330;28;20207;-60
2024/01/10 07:57:39;;;;;;;9.47;6.30;;;;;;;;;;5082902;28;20543;-60
2024/01/10 08:00:08;;;;;;;9.63;6.43;;;;;;;;;;5081857;28;20521;-60
2024/01/10 08:02:35;;;;;;;10.27;6.40;;;;;;;;;;5080422;28;20208;-60
2024/01/10 08:05:04;;;;;;;9.73;6.20;;;;;;;;;;5079209;28;20172;-59
2024/01/10 08:07:32;;;;;;;10.90;6.10;;;;;;;;;;5081255;28;20223;-61
2024/01/10 08:09:58;;;;;;;10.50;6.37;;;;;;;;;;5081345;28;20486;-60
2024/01/10 08:12:24;;;;;;;10.57;6.20;;;;;;;;;;5080622;28;20720;-60
2024/01/10 08:14:50;;;;;;;11.23;6.33;;;;;;;;;;5086032;28;20214;-60
2024/01/10 08:17:16;;;;;;;10.37;6.40;;;;;;;;;;5089203;28;20176;-60
2024/01/10 08:19:42;;;;;;;9.97;6.60;;;;;;;;;;5091690;28;20273;-60
2024/01/10 08:22:08;;;;;;;9.70;6.23;;;;;;;;;;5091479;28;20196;-61
2024/01/10 08:24:34;;;;;;;10.77;6.50;;;;;;;;;;5090212;28;20280;-59
2024/01/10 08:27:00;;;;;;;10.43;6.43;;;;;;;;;;5090598;28;20283;-61
2024/01/10 08:29:31;;;;;;;7.97;5.93;;;;;;;;;;5090072;28;20275;-61
2024/01/10 08:31:56;;;;;;;10.50;7.10;;;;;;;;;;5089739;28;20618;-60
2024/01/10 08:34:23;;;;;;;11.80;7.07;;;;;;;;;;5090066;28;20752;-60
2024/01/10 08:36:50;;;;;;;13.87;7.53;;;;;;;;;;5089791;28;20156;-61
2024/01/10 08:39:16;;;;;;;11.57;6.87;;;;;;;;;;5088581;28;20168;-61
2024/01/10 08:41:44;;;;;;;9.43;6.93;;;;;;;;;;5088246;28;20262;-59
2024/01/10 08:44:10;;;;;;;10.80;6.90;;;;;;;;;;5092365;28;20172;-61
2024/01/10 08:46:37;;;;;;;9.00;5.83;;;;;;;;;;5093178;28;20182;-60
2024/01/10 08:49:03;;;;;;;9.00;5.67;;;;;;;;;;5094119;28;20247;-60
2024/01/10 08:51:30;;;;;;;10.77;6.83;;;;;;;;;;5092692;28;20180;-60
2024/01/10 08:53:56;;;;;;;10.03;6.30;;;;;;;;;;5093394;28;20241;-60
2024/01/10 08:56:22;;;;;;;10.70;7.33;;;;;;;;;;5093340;28;20258;-60
2024/01/10 08:58:50;;;;;;;9.73;6.57;;;;;;;;;;5093815;28;20173;-60
2024/01/10 09:01:18;;;;;;;11.23;7.00;;;;;;;;;;5094235;28;20160;-60
2024/01/10 09:03:44;;;;;;;10.73;6.17;;;;;;;;;;5092860;28;20241;-59
2024/01/10 09:06:11;;;;;;;9.37;6.23;;;;;;;;;;5093305;28;20179;-60
2024/01/10 09:08:37;;;;;;;9.37;6.17;;;;;;;;;;5093380;28;20183;-60
2024/01/10 09:11:04;;;;;;;13.20;6.60;;;;;;;;;;5076284;28;20228;-61
2024/01/10 09:13:32;;;;;;;9.10;6.03;;;;;;;;;;5092895;28;20234;-59
2024/01/10 09:15:59;;;;;;;8.27;6.37;;;;;;;;;;5093055;28;20242;-60
2024/01/10 09:18:25;;;;;;;11.23;6.47;;;;;;;;;;5092650;28;20651;-61
2024/01/10 09:20:52;;;;;;;13.47;7.90;;;;;;;;;;5092933;28;20255;-60
2024/01/10 09:23:19;;;;;;;11.03;6.97;;;;;;;;;;5093925;28;20256;-60
2024/01/10 09:25:45;;;;;;;10.70;6.60;;;;;;;;;;5092859;28;20525;-60
2024/01/10 09:28:11;;;;;;;10.87;6.80;;;;;;;;;;5093175;28;20580;-60
2024/01/10 09:30:39;;;;;;;9.17;6.20;;;;;;;;;;5092819;28;20658;-60
2024/01/10 09:33:07;;;;;;;13.27;8.30;;;;;;;;;;5093491;28;20271;-60
2024/01/10 09:35:34;;;;;;;11.97;7.73;;;;;;;;;;5093627;28;20241;-60
2024/01/10 09:38:00;;;;;;;10.13;7.23;;;;;;;;;;5091625;28;20202;-61
2024/01/10 09:40:28;;;;;;;10.73;7.73;;;;;;;;;;5091881;28;20172;-61
2024/01/10 09:42:55;;;;;;;12.03;7.73;;;;;;;;;;5093484;28;20210;-59
2024/01/10 09:45:22;;;;;;;9.97;6.80;;;;;;;;;;5094928;28;20437;-60
2024/01/10 09:47:49;;;;;;;10.17;6.90;;;;;;;;;;5092605;28;20225;-61
2024/01/10 09:50:15;;;;;;;12.47;7.23;;;;;;;;;;5090779;28;20176;-58
2024/01/10 09:52:42;;;;;;;10.60;6.50;;;;;;;;;;5090443;28;20260;-59
2024/01/10 09:55:10;;;;;;;10.83;6.83;;;;;;;;;;5089462;28;20239;-59
2024/01/10 09:57:41;;;;;;;13.20;7.40;;;;;;;;;;5090050;28;20180;-63
2024/01/10 10:00:10;;;;;;;12.93;7.13;;;;;;;;;;5091944;28;20590;-62
2024/01/10 10:02:40;;;;;;;13.20;8.23;;;;;;;;;;5092522;28;20168;-62
2024/01/10 10:05:15;;;;;;;10.33;7.10;;;;;;;;;;5090729;28;20202;-60
2024/01/10 10:07:48;;;;;;;11.97;7.47;;;;;;;;;;5072574;28;20183;-58
2024/01/10 10:10:16;;;;;;;11.60;7.63;;;;;;;;;;5072893;28;20188;-60
2024/01/10 10:12:47;;;;;;;14.30;7.60;;;;;;;;;;5088859;28;20853;-60
2024/01/10 10:15:18;;;;;;;12.83;7.77;;;;;;;;;;5089632;28;20204;-60
2024/01/10 10:17:49;;;;;;;11.90;8.23;;;;;;;;;;5092164;28;20548;-61
2024/01/10 10:20:24;;;;;;;11.47;7.57;;;;;;;;;;5091667;28;20172;-59
2024/01/10 10:23:06;;;;;;;13.50;7.83;;;;;;;;;;5091908;28;20272;-61
2024/01/10 10:25:48;;;;;;;13.63;8.30;;;;;;;;;;5091935;28;20180;-60
2024/01/10 10:28:14;;;;;;;12.87;8.50;;;;;;;;;;5092666;28;20180;-61
2024/01/10 10:30:40;;;;;;;10.67;7.07;;;;;;;;;;5091296;28;20168;-60
2024/01/10 10:33:09;;;;;;;12.50;8.20;;;;;;;;;;5092005;28;20201;-60
2024/01/10 10:35:35;;;;;;;11.83;7.83;;;;;;;;;;5090749;28;20269;-60
2024/01/10 10:38:01;;;;;;;14.93;8.23;;;;;;;;;;5091149;28;20221;-58
2024/01/10 10:40:27;;;;;;;13.23;8.00;;;;;;;;;;5090783;28;20520;-58
2024/01/10 10:42:55;;;;;;;11.43;7.33;;;;;;;;;;5091190;28;20164;-56
2024/01/10 10:45:29;;;;;;;11.73;6.83;;;;;;;;;;5092364;28;20633;-59
2024/01/10 10:47:59;;;;;;;11.97;6.97;;;;;;;;;;5090311;28;20274;-60
2024/01/10 10:50:28;;;;;;;12.50;7.07;;;;;;;;;;5090619;28;20333;-60
2024/01/10 10:52:55;;;;;;;12.53;6.73;;;;;;;;;;5091467;28;20182;-60
2024/01/10 10:55:23;;;;;;;11.23;6.60;;;;;;;;;;5091337;28;20572;-60
2024/01/10 10:57:50;;;;;;;13.13;6.27;;;;;;;;;;5091427;28;20161;-60
2024/01/10 11:00:20;;;;;;;13.30;7.07;;;;;;;;;;5089820;28;20200;-61
2024/01/10 11:02:46;;;;;;;11.50;6.67;;;;;;;;;;5089282;28;20569;-60
2024/01/10 11:05:12;;;;;;;11.47;6.73;;;;;;;;;;5089307;28;20178;-60
2024/01/10 11:07:41;;;;;;;10.77;7.10;;;;;;;;;;5088110;28;20198;-60
2024/01/10 11:10:11;;;;;;;13.23;8.43;;;;;;;;;;5088471;28;20171;-60
2024/01/10 11:12:56;;;;;;;14.00;8.23;;;;;;;;;;5086152;28;20341;-61
2024/01/10 11:15:41;;;;;;;13.90;9.00;;;;;;;;;;5087938;28;20215;-60
2024/01/10 11:18:22;;;;;;;10.03;6.97;;;;;;;;;;5089218;28;20282;-57
2024/01/10 11:20:59;;;;;;;11.53;6.97;;;;;;;;;;5088508;28;20207;-60
2024/01/10 11:23:44;;;;;;;15.17;9.20;;;;;;;;;;5089380;28;20175;-62
2024/01/10 11:26:10;;;;;;;15.30;8.20;;;;;;;;;;5088986;28;20183;-58
2024/01/10 11:28:40;;;;;;;10.93;7.17;;;;;;;;;;5089456;28;20167;-61
2024/01/10 11:31:08;;;;;;;10.90;5.87;;;;;;;;;;5089177;28;20532;-60
2024/01/10 11:33:39;;;;;;;10.87;6.40;;;;;;;;;;5088606;28;20752;-59
2024/01/10 11:36:12;;;;;;;9.60;6.73;;;;;;;;;;5089597;28;20463;-61
2024/01/10 11:38:54;;;;;;;8.27;5.70;;;;;;;;;;5088075;28;20543;-60
2024/01/10 11:41:38;;;;;;;9.60;6.57;;;;;;;;;;5088167;28;20671;-61
2024/01/10 11:44:13;;;;;;;10.57;6.17;;;;;;;;;;5088779;28;20373;-60
2024/01/10 11:46:39;;;;;;;8.73;6.07;;;;;;;;;;5086263;28;20171;-61
2024/01/10 11:49:07;;;;;;;9.10;5.93;;;;;;;;;;5086526;28;20172;-60
2024/01/10 11:51:36;;;;;;;8.13;5.73;;;;;;;;;;5087134;28;20254;-60
2024/01/10 11:54:02;;;;;;;7.37;4.87;;;;;;;;;;5086642;28;20760;-60
2024/01/10 11:56:38;;;;;;;7.63;5.00;;;;;;;;;;5089099;28;20200;-61
2024/01/10 11:59:11;;;;;;;9.80;5.60;;;;;;;;;;5086762;28;20182;-61
2024/01/10 12:01:41;;;;;;;6.50;3.93;;;;;;;;;;5088309;28;20179;-61
2024/01/10 12:04:07;;;;;;;6.63;4.27;;;;;;;;;;5087571;28;20182;-60
2024/01/10 12:06:38;;;;;;;7.37;4.37;;;;;;;;;;5087441;28;20659;-60
2024/01/10 12:09:13;;;;;;;9.60;4.47;;;;;;;;;;5087720;28;20438;-58
2024/01/10 12:11:45;;;;;;;5.77;4.23;;;;;;;;;;5089673;28;20296;-60
2024/01/10 12:14:12;;;;;;;5.10;3.63;;;;;;;;;;5089584;28;20870;-60
2024/01/10 12:16:38;;;;;;;4.83;3.47;;;;;;;;;;5089532;28;20168;-60
2024/01/10 12:19:06;;;;;;;7.97;4.87;;;;;;;;;;5094052;28;20178;-58
2024/01/10 12:21:32;;;;;;;7.87;5.00;;;;;;;;;;5094481;28;20500;-63
2024/01/10 12:23:58;;;;;;;7.53;4.63;;;;;;;;;;5094828;28;20574;-63
2024/01/10 12:26:25;;;;;;;7.37;4.43;;;;;;;;;;5094256;28;20180;-61
2024/01/10 12:28:58;;;;;;;7.33;4.73;;;;;;;;;;5094512;28;20182;-59
2024/01/10 12:31:29;;;;;;;6.30;4.77;;;;;;;;;;5093621;28;20440;-60
2024/01/10 12:33:57;;;;;;;6.83;4.33;;;;;;;;;;5092848;28;20695;-60
2024/01/10 12:36:23;;;;;;;10.00;4.73;;;;;;;;;;5092095;28;20191;-60
2024/01/10 12:38:49;;;;;;;6.90;4.67;;;;;;;;;;5090779;28;20258;-59
2024/01/10 12:41:17;;;;;;;6.53;4.60;;;;;;;;;;5090621;28;20176;-60
2024/01/10 12:43:43;;;;;;;7.30;4.60;;;;;;;;;;5087717;28;20172;-60
2024/01/10 12:46:10;;;;;;;7.77;4.93;;;;;;;;;;5090009;28;20198;-60
2024/01/10 12:48:41;;;;;;;7.60;5.27;;;;;;;;;;5088718;28;20199;-60
2024/01/10 12:51:08;;;;;;;6.93;4.43;;;;;;;;;;5087902;28;20270;-60
2024/01/10 12:53:39;;;;;;;6.97;4.63;;;;;;;;;;5088233;28;20268;-60
2024/01/10 12:56:06;;;;;;;9.53;4.93;;;;;;;;;;5088531;28;20168;-60
2024/01/10 12:58:37;;;;;;;6.80;4.60;;;;;;;;;;5089280;28;20175;-58
2024/01/10 13:01:04;;;;;;;7.70;4.23;;;;;;;;;;5089501;28;20168;-60
2024/01/10 13:03:30;;;;;;;7.57;4.73;;;;;;;;;;5089002;28;20176;-59
2024/01/10 13:05:58;;;;;;;6.57;4.57;;;;;;;;;;5087623;28;20208;-60
2024/01/10 13:08:24;;;;;;;6.97;4.80;;;;;;;;;;5085680;28;20179;-60
2024/01/10 13:10:53;;;;;;;8.33;4.50;;;;;;;;;;5084002;28;21208;-60
2024/01/10 13:13:21;;;;;;;6.07;4.47;;;;;;;;;;5084880;28;20176;-60
2024/01/10 13:15:49;;;;;;;8.57;4.97;;;;;;;;;;5087240;28;20251;-60
2024/01/10 13:18:15;;;;;;;11.27;5.50;;;;;;;;;;5087346;28;20168;-60
2024/01/10 13:20:44;;;;;;;7.17;4.93;;;;;;;;;;5086793;28;20202;-60
2024/01/10 13:23:11;;;;;;;7.13;4.97;;;;;;;;;;5090907;28;20180;-60
2024/01/10 13:25:37;;;;;;;8.10;5.57;;;;;;;;;;5092075;28;20204;-60
2024/01/10 13:28:04;;;;;;;12.77;5.50;;;;;;;;;;5091925;28;20251;-60
2024/01/10 13:30:31;;;;;;;9.00;5.27;;;;;;;;;;5089296;28;20175;-60
2024/01/10 13:32:58;;;;;;;9.83;5.77;;;;;;;;;;5089369;28;20169;-60
2024/01/10 13:35:24;;;;;;;8.10;5.13;;;;;;;;;;5091128;28;20196;-58
2024/01/10 13:37:50;;;;;;;7.70;5.47;;;;;;;;;;5090030;28;20543;-60
2024/01/10 13:40:23;;;;;;;7.63;4.53;;;;;;;;;;5088712;28;20449;-60
2024/01/10 13:42:50;;;;;;;9.30;5.43;;;;;;;;;;5089357;28;20263;-58
2024/01/10 13:45:17;;;;;;;9.67;5.97;;;;;;;;;;5088885;28;20263;-59
2024/01/10 13:47:43;;;;;;;10.53;6.50;;;;;;;;;;5088210;28;20586;-60
2024/01/10 13:50:09;;;;;;;6.43;4.80;;;;;;;;;;5087762;28;20230;-61
2024/01/10 13:52:36;;;;;;;10.73;6.10;;;;;;;;;;5088391;28;20174;-60
2024/01/10 13:55:06;;;;;;;8.27;5.70;;;;;;;;;;5087707;28;20257;-61
2024/01/10 13:57:32;;;;;;;7.40;5.40;;;;;;;;;;5088503;28;20172;-60
2024/01/10 13:59:58;;;;;;;9.73;5.50;;;;;;;;;;5089027;28;20255;-61
2024/01/10 14:02:24;;;;;;;8.30;5.50;;;;;;;;;;5089315;28;20456;-61
2024/01/10 14:04:51;;;;;;;11.47;6.03;;;;;;;;;;5090990;28;20180;-61
2024/01/10 14:07:17;;;;;;;8.27;5.13;;;;;;;;;;5091035;28;20208;-60
2024/01/10 14:09:45;;;;;;;8.30;6.23;;;;;;;;;;5084987;28;20241;-61
2024/01/10 14:12:11;;;;;;;10.30;5.23;;;;;;;;;;5082368;28;20235;-61
2024/01/10 14:14:37;;;;;;;6.43;4.73;;;;;;;;;;5085308;28;20215;-61
2024/01/10 14:17:06;;;;;;;7.43;5.50;;;;;;;;;;5091533;28;20490;-60
2024/01/10 14:19:32;;;;;;;9.13;5.97;;;;;;;;;;5088843;28;20172;-61
2024/01/10 14:21:59;;;;;;;8.23;5.83;;;;;;;;;;5088427;28;20428;-61
2024/01/10 14:24:26;;;;;;;8.27;5.07;;;;;;;;;;5087515;28;20181;-60
2024/01/10 14:26:52;;;;;;;8.60;5.37;;;;;;;;;;5087314;28;20190;-61
2024/01/10 14:29:19;;;;;;;7.37;4.93;;;;;;;;;;5088575;28;20176;-61
2024/01/10 14:31:46;;;;;;;6.63;4.63;;;;;;;;;;5090164;28;20190;-61